sensor_id;sensor_type;location;lat;lon;timestamp;pressure;altitude;pressure_sealevel;temperature;humidity
29467;BME280;60968;37.490;-122.288;2022-08-19T00:02:51;98487.06;;;25.51;32.59
29467;BME280;60968;37.490;-122.288;2022-08-19T00:05:53;98485.22;;;25.30;34.16
29467;BME280;60968;37.490;-122.288;2022-08-19T00:08:56;98501.28;;;25.19;35.35
29467;BME280;60968;37.490;-122.288;2022-08-19T00:11:59;98496.13;;;24.95;35.44
29467;BME280;60968;37.490;-122.288;2022-08-19T00:15:00;98491.34;;;24.77;36.13
29467;BME280;60968;37.490;-122.288;2022-08-19T00:18:01;98504.94;;;24.63;36.64
29467;BME280;60968;37.490;-122.288;2022-08-19T00:21:02;98503.94;;;24.64;36.53
29467;BME280;60968;37.490;-122.288;2022-08-19T00:24:04;98509.63;;;24.71;36.47
29467;BME280;60968;37.490;-122.288;2022-08-19T00:27:05;98506.84;;;24.61;36.77
29467;BME280;60968;37.490;-122.288;2022-08-19T00:30:07;98506.84;;;24.61;36.18
29467;BME280;60968;37.490;-122.288;2022-08-19T00:33:10;98505.38;;;24.68;35.91
29467;BME280;60968;37.490;-122.288;2022-08-19T00:36:11;98507.09;;;24.69;35.27
29467;BME280;60968;37.490;-122.288;2022-08-19T00:39:15;98502.59;;;24.81;35.54
29467;BME280;60968;37.490;-122.288;2022-08-19T00:42:17;98509.34;;;24.85;36.11
29467;BME280;60968;37.490;-122.288;2022-08-19T00:45:21;98506.84;;;24.61;36.58
29467;BME280;60968;37.490;-122.288;2022-08-19T00:48:22;98517.38;;;24.40;37.83
29467;BME280;60968;37.490;-122.288;2022-08-19T00:51:27;98526.44;;;24.14;38.44
29467;BME280;60968;37.490;-122.288;2022-08-19T00:54:31;98517.00;;;24.10;37.73
29467;BME280;60968;37.490;-122.288;2022-08-19T00:57:37;98513.13;;;24.14;35.67
29467;BME280;60968;37.490;-122.288;2022-08-19T01:00:40;98519.19;;;24.28;36.23
29467;BME280;60968;37.490;-122.288;2022-08-19T01:03:41;98508.19;;;24.32;37.00
29467;BME280;60968;37.490;-122.288;2022-08-19T01:06:42;98509.13;;;24.31;37.38
29467;BME280;60968;37.490;-122.288;2022-08-19T01:09:43;98509.25;;;24.30;36.84
29467;BME280;60968;37.490;-122.288;2022-08-19T01:12:45;98499.94;;;24.36;37.55
29467;BME280;60968;37.490;-122.288;2022-08-19T01:16:02;98499.94;;;24.36;36.83
29467;BME280;60968;37.490;-122.288;2022-08-19T01:19:13;98505.03;;;24.27;37.36
29467;BME280;60968;37.490;-122.288;2022-08-19T01:22:30;98504.69;;;24.09;39.67
29467;BME280;60968;37.490;-122.288;2022-08-19T01:25:52;98503.53;;;23.89;41.49
29467;BME280;60968;37.490;-122.288;2022-08-19T01:28:57;98509.38;;;23.59;41.68
29467;BME280;60968;37.490;-122.288;2022-08-19T01:31:59;98498.66;;;23.25;41.60
29467;BME280;60968;37.490;-122.288;2022-08-19T01:35:03;98510.53;;;22.95;42.78
29467;BME280;60968;37.490;-122.288;2022-08-19T01:38:07;98506.63;;;22.51;44.00
29467;BME280;60968;37.490;-122.288;2022-08-19T01:41:12;98508.16;;;22.42;44.81
29467;BME280;60968;37.490;-122.288;2022-08-19T01:44:14;98502.00;;;22.03;46.13
29467;BME280;60968;37.490;-122.288;2022-08-19T01:47:17;98513.00;;;21.84;45.78
29467;BME280;60968;37.490;-122.288;2022-08-19T01:50:18;98504.53;;;21.79;47.08
29467;BME280;60968;37.490;-122.288;2022-08-19T01:53:19;98493.28;;;21.88;44.53
29467;BME280;60968;37.490;-122.288;2022-08-19T01:56:22;98499.03;;;21.95;43.91
29467;BME280;60968;37.490;-122.288;2022-08-19T01:59:24;98507.53;;;22.00;43.54
29467;BME280;60968;37.490;-122.288;2022-08-19T02:02:29;98506.25;;;22.05;43.70
29467;BME280;60968;37.490;-122.288;2022-08-19T02:05:32;98509.41;;;21.98;42.07
29467;BME280;60968;37.490;-122.288;2022-08-19T02:08:35;98506.88;;;21.96;41.83
29467;BME280;60968;37.490;-122.288;2022-08-19T02:11:36;98506.31;;;21.91;42.62
29467;BME280;60968;37.490;-122.288;2022-08-19T02:14:38;98509.41;;;21.72;44.89
29467;BME280;60968;37.490;-122.288;2022-08-19T02:17:40;98516.78;;;21.54;45.71
29467;BME280;60968;37.490;-122.288;2022-08-19T02:20:43;98515.47;;;21.34;46.82
29467;BME280;60968;37.490;-122.288;2022-08-19T02:23:45;98523.28;;;21.08;47.24
29467;BME280;60968;37.490;-122.288;2022-08-19T02:26:46;98524.81;;;20.85;48.44
29467;BME280;60968;37.490;-122.288;2022-08-19T02:29:48;98524.94;;;20.69;49.33
29467;BME280;60968;37.490;-122.288;2022-08-19T02:32:53;98533.88;;;20.66;47.92
29467;BME280;60968;37.490;-122.288;2022-08-19T02:35:55;98526.78;;;20.67;47.65
29467;BME280;60968;37.490;-122.288;2022-08-19T02:38:56;98532.00;;;20.68;48.24
29467;BME280;60968;37.490;-122.288;2022-08-19T02:41:57;98531.94;;;20.41;50.55
29467;BME280;60968;37.490;-122.288;2022-08-19T02:44:58;98528.50;;;20.39;50.15
29467;BME280;60968;37.490;-122.288;2022-08-19T02:48:00;98536.00;;;20.32;50.75
29467;BME280;60968;37.490;-122.288;2022-08-19T02:51:01;98536.66;;;20.21;51.39
29467;BME280;60968;37.490;-122.288;2022-08-19T02:54:02;98540.91;;;20.24;51.19
29467;BME280;60968;37.490;-122.288;2022-08-19T02:57:04;98542.03;;;20.20;51.55
29467;BME280;60968;37.490;-122.288;2022-08-19T03:00:06;98550.34;;;20.14;51.82
29467;BME280;60968;37.490;-122.288;2022-08-19T03:03:07;98549.38;;;20.00;53.23
29467;BME280;60968;37.490;-122.288;2022-08-19T03:06:13;98552.31;;;19.96;53.96
29467;BME280;60968;37.490;-122.288;2022-08-19T03:09:16;98553.34;;;19.93;53.48
29467;BME280;60968;37.490;-122.288;2022-08-19T03:12:17;98557.84;;;19.91;53.71
29467;BME280;60968;37.490;-122.288;2022-08-19T03:15:19;98556.00;;;19.93;53.50
29467;BME280;60968;37.490;-122.288;2022-08-19T03:18:21;98563.81;;;19.80;53.99
29467;BME280;60968;37.490;-122.288;2022-08-19T03:21:25;98563.47;;;19.70;55.09
29467;BME280;60968;37.490;-122.288;2022-08-19T03:24:26;98569.19;;;19.63;55.50
29467;BME280;60968;37.490;-122.288;2022-08-19T03:27:28;98569.66;;;19.55;55.78
29467;BME280;60968;37.490;-122.288;2022-08-19T03:30:30;98573.91;;;19.42;56.38
29467;BME280;60968;37.490;-122.288;2022-08-19T03:33:32;98578.88;;;19.32;56.79
29467;BME280;60968;37.490;-122.288;2022-08-19T03:36:33;98578.78;;;19.33;57.08
29467;BME280;60968;37.490;-122.288;2022-08-19T03:39:36;98574.81;;;19.26;57.14
29467;BME280;60968;37.490;-122.288;2022-08-19T03:42:39;98575.16;;;19.20;57.40
29467;BME280;60968;37.490;-122.288;2022-08-19T03:45:40;98580.44;;;19.20;57.50
29467;BME280;60968;37.490;-122.288;2022-08-19T03:48:43;98585.47;;;19.09;58.05
29467;BME280;60968;37.490;-122.288;2022-08-19T03:51:45;98584.78;;;18.89;59.54
29467;BME280;60968;37.490;-122.288;2022-08-19T03:54:50;98580.84;;;18.80;60.42
29467;BME280;60968;37.490;-122.288;2022-08-19T03:57:52;98587.06;;;18.79;61.66
29467;BME280;60968;37.490;-122.288;2022-08-19T04:00:53;98593.16;;;18.80;64.39
29467;BME280;60968;37.490;-122.288;2022-08-19T04:03:55;98601.25;;;18.77;65.77
29467;BME280;60968;37.490;-122.288;2022-08-19T04:06:57;98607.09;;;18.66;67.02
29467;BME280;60968;37.490;-122.288;2022-08-19T04:09:57;98615.44;;;18.58;68.54
29467;BME280;60968;37.490;-122.288;2022-08-19T04:12:59;98606.75;;;18.56;68.92
29467;BME280;60968;37.490;-122.288;2022-08-19T04:16:00;98611.88;;;18.59;69.17
29467;BME280;60968;37.490;-122.288;2022-08-19T04:19:03;98617.81;;;18.47;70.89
29467;BME280;60968;37.490;-122.288;2022-08-19T04:22:07;98618.44;;;18.34;71.69
29467;BME280;60968;37.490;-122.288;2022-08-19T04:25:09;98623.25;;;18.26;72.49
29467;BME280;60968;37.490;-122.288;2022-08-19T04:28:12;98623.25;;;18.26;72.53
29467;BME280;60968;37.490;-122.288;2022-08-19T04:31:21;98618.00;;;18.26;72.92
29467;BME280;60968;37.490;-122.288;2022-08-19T04:34:25;98619.06;;;18.22;74.19
29467;BME280;60968;37.490;-122.288;2022-08-19T04:37:27;98621.88;;;18.19;75.17
29467;BME280;60968;37.490;-122.288;2022-08-19T04:40:28;98632.59;;;18.16;75.27
29467;BME280;60968;37.490;-122.288;2022-08-19T04:43:29;98624.84;;;18.13;75.51
29467;BME280;60968;37.490;-122.288;2022-08-19T04:46:30;98620.88;;;18.04;76.45
29467;BME280;60968;37.490;-122.288;2022-08-19T04:49:32;98622.81;;;18.00;76.95
29467;BME280;60968;37.490;-122.288;2022-08-19T04:52:33;98623.28;;;17.91;76.99
29467;BME280;60968;37.490;-122.288;2022-08-19T04:55:34;98614.66;;;17.88;77.71
29467;BME280;60968;37.490;-122.288;2022-08-19T04:58:36;98615.88;;;17.80;78.20
29467;BME280;60968;37.490;-122.288;2022-08-19T05:01:38;98625.56;;;17.80;78.55
29467;BME280;60968;37.490;-122.288;2022-08-19T05:04:38;98623.78;;;17.80;78.08
29467;BME280;60968;37.490;-122.288;2022-08-19T05:07:39;98617.25;;;17.70;78.54
29467;BME280;60968;37.490;-122.288;2022-08-19T05:10:40;98610.84;;;17.58;78.66
29467;BME280;60968;37.490;-122.288;2022-08-19T05:13:44;98606.94;;;17.48;79.43
29467;BME280;60968;37.490;-122.288;2022-08-19T05:16:45;98603.88;;;17.38;80.57
29467;BME280;60968;37.490;-122.288;2022-08-19T05:19:46;98602.72;;;17.26;81.70
29467;BME280;60968;37.490;-122.288;2022-08-19T05:22:47;98599.66;;;17.17;82.49
29467;BME280;60968;37.490;-122.288;2022-08-19T05:25:51;98599.31;;;17.05;85.62
29467;BME280;60968;37.490;-122.288;2022-08-19T05:28:53;98598.59;;;17.02;89.03
29467;BME280;60968;37.490;-122.288;2022-08-19T05:31:54;98601.19;;;17.03;90.39
29467;BME280;60968;37.490;-122.288;2022-08-19T05:34:56;98596.19;;;16.97;91.80
29467;BME280;60968;37.490;-122.288;2022-08-19T05:37:57;98595.81;;;16.86;92.59
29467;BME280;60968;37.490;-122.288;2022-08-19T05:41:00;98585.50;;;16.81;92.63
29467;BME280;60968;37.490;-122.288;2022-08-19T05:44:04;98585.78;;;16.75;93.00
29467;BME280;60968;37.490;-122.288;2022-08-19T05:47:06;98580.09;;;16.65;93.94
29467;BME280;60968;37.490;-122.288;2022-08-19T05:50:08;98578.72;;;16.56;94.53
29467;BME280;60968;37.490;-122.288;2022-08-19T05:53:09;98580.78;;;16.50;94.72
29467;BME280;60968;37.490;-122.288;2022-08-19T05:56:14;98579.50;;;16.39;95.30
29467;BME280;60968;37.490;-122.288;2022-08-19T05:59:17;98573.81;;;16.29;95.74
29467;BME280;60968;37.490;-122.288;2022-08-19T06:02:18;98575.72;;;16.26;96.20
29467;BME280;60968;37.490;-122.288;2022-08-19T06:05:19;98583.22;;;16.15;98.06
29467;BME280;60968;37.490;-122.288;2022-08-19T06:08:20;98576.47;;;16.09;99.30
29467;BME280;60968;37.490;-122.288;2022-08-19T06:11:54;98579.41;;;16.01;99.52
29467;BME280;60968;37.490;-122.288;2022-08-19T06:14:55;98574.09;;;16.03;99.03
29467;BME280;60968;37.490;-122.288;2022-08-19T06:17:57;98578.66;;;15.99;99.63
29467;BME280;60968;37.490;-122.288;2022-08-19T06:20:57;98573.69;;;15.91;99.34
29467;BME280;60968;37.490;-122.288;2022-08-19T06:23:59;98564.78;;;15.95;99.04
29467;BME280;60968;37.490;-122.288;2022-08-19T06:27:00;98575.34;;;15.94;98.01
29467;BME280;60968;37.490;-122.288;2022-08-19T06:30:03;98570.88;;;15.96;99.25
29467;BME280;60968;37.490;-122.288;2022-08-19T06:33:04;98573.88;;;16.07;100.00
29467;BME280;60968;37.490;-122.288;2022-08-19T06:36:07;98567.78;;;16.07;100.00
29467;BME280;60968;37.490;-122.288;2022-08-19T06:39:33;98561.81;;;16.03;100.00
29467;BME280;60968;37.490;-122.288;2022-08-19T06:42:37;98563.72;;;16.00;100.00
29467;BME280;60968;37.490;-122.288;2022-08-19T06:45:38;98567.47;;;15.94;100.00
29467;BME280;60968;37.490;-122.288;2022-08-19T06:48:40;98563.06;;;15.94;100.00
29467;BME280;60968;37.490;-122.288;2022-08-19T06:51:44;98553.50;;;15.93;100.00
29467;BME280;60968;37.490;-122.288;2022-08-19T06:54:45;98561.38;;;15.93;100.00
29467;BME280;60968;37.490;-122.288;2022-08-19T06:57:46;98568.31;;;15.94;100.00
29467;BME280;60968;37.490;-122.288;2022-08-19T07:00:47;98564.09;;;15.90;100.00
29467;BME280;60968;37.490;-122.288;2022-08-19T07:03:48;98565.81;;;15.91;100.00
29467;BME280;60968;37.490;-122.288;2022-08-19T07:06:50;98561.69;;;15.86;100.00
29467;BME280;60968;37.490;-122.288;2022-08-19T07:09:51;98561.63;;;15.87;100.00
29467;BME280;60968;37.490;-122.288;2022-08-19T07:12:52;98562.44;;;15.89;100.00
29467;BME280;60968;37.490;-122.288;2022-08-19T07:15:54;98549.66;;;15.80;100.00
29467;BME280;60968;37.490;-122.288;2022-08-19T07:18:55;98544.31;;;15.61;100.00
29467;BME280;60968;37.490;-122.288;2022-08-19T07:21:57;98542.00;;;15.53;100.00
29467;BME280;60968;37.490;-122.288;2022-08-19T07:24:57;98538.72;;;15.48;100.00
29467;BME280;60968;37.490;-122.288;2022-08-19T07:27:58;98547.53;;;15.47;100.00
29467;BME280;60968;37.490;-122.288;2022-08-19T07:31:00;98545.69;;;15.49;100.00
29467;BME280;60968;37.490;-122.288;2022-08-19T07:34:03;98544.72;;;15.52;100.00
29467;BME280;60968;37.490;-122.288;2022-08-19T07:37:08;98554.28;;;15.53;100.00
29467;BME280;60968;37.490;-122.288;2022-08-19T07:40:09;98548.84;;;15.57;100.00
29467;BME280;60968;37.490;-122.288;2022-08-19T07:43:11;98553.25;;;15.57;100.00
29467;BME280;60968;37.490;-122.288;2022-08-19T07:46:14;98550.66;;;15.55;100.00
29467;BME280;60968;37.490;-122.288;2022-08-19T07:49:17;98548.16;;;15.52;100.00
29467;BME280;60968;37.490;-122.288;2022-08-19T07:52:18;98552.59;;;15.52;100.00
29467;BME280;60968;37.490;-122.288;2022-08-19T07:55:22;98541.59;;;15.42;100.00
29467;BME280;60968;37.490;-122.288;2022-08-19T07:58:26;98545.47;;;15.33;100.00
29467;BME280;60968;37.490;-122.288;2022-08-19T08:01:27;98540.34;;;15.30;100.00
29467;BME280;60968;37.490;-122.288;2022-08-19T08:04:30;98537.00;;;15.26;100.00
29467;BME280;60968;37.490;-122.288;2022-08-19T08:07:31;98537.91;;;15.25;100.00
29467;BME280;60968;37.490;-122.288;2022-08-19T08:10:32;98528.22;;;15.27;100.00
29467;BME280;60968;37.490;-122.288;2022-08-19T08:13:33;98533.38;;;15.29;100.00
29467;BME280;60968;37.490;-122.288;2022-08-19T08:16:36;98523.81;;;15.28;100.00
29467;BME280;60968;37.490;-122.288;2022-08-19T08:19:38;98525.88;;;15.20;100.00
29467;BME280;60968;37.490;-122.288;2022-08-19T08:22:45;98526.38;;;15.07;100.00
29467;BME280;60968;37.490;-122.288;2022-08-19T08:25:46;98521.88;;;14.89;100.00
29467;BME280;60968;37.490;-122.288;2022-08-19T08:28:48;98522.19;;;14.81;100.00
29467;BME280;60968;37.490;-122.288;2022-08-19T08:31:49;98509.00;;;14.83;100.00
29467;BME280;60968;37.490;-122.288;2022-08-19T08:34:50;98507.66;;;14.95;100.00
29467;BME280;60968;37.490;-122.288;2022-08-19T08:37:54;98503.34;;;14.94;100.00
29467;BME280;60968;37.490;-122.288;2022-08-19T08:41:01;98508.94;;;14.84;100.00
29467;BME280;60968;37.490;-122.288;2022-08-19T08:44:13;98508.38;;;14.76;100.00
29467;BME280;60968;37.490;-122.288;2022-08-19T08:47:18;98508.38;;;14.76;100.00
29467;BME280;60968;37.490;-122.288;2022-08-19T08:50:22;98503.13;;;14.76;100.00
29467;BME280;60968;37.490;-122.288;2022-08-19T08:53:25;98499.97;;;14.68;100.00
29467;BME280;60968;37.490;-122.288;2022-08-19T08:56:26;98505.88;;;14.49;100.00
29467;BME280;60968;37.490;-122.288;2022-08-19T08:59:30;98494.72;;;14.44;100.00
29467;BME280;60968;37.490;-122.288;2022-08-19T09:02:32;98497.25;;;14.47;100.00
29467;BME280;60968;37.490;-122.288;2022-08-19T09:05:44;98493.81;;;14.45;100.00
29467;BME280;60968;37.490;-122.288;2022-08-19T09:08:48;98488.56;;;14.45;100.00
29467;BME280;60968;37.490;-122.288;2022-08-19T09:12:01;98492.59;;;14.54;100.00
29467;BME280;60968;37.490;-122.288;2022-08-19T09:15:08;98488.94;;;14.58;100.00
29467;BME280;60968;37.490;-122.288;2022-08-19T09:18:10;98487.28;;;14.55;100.00
29467;BME280;60968;37.490;-122.288;2022-08-19T09:21:12;98485.03;;;14.46;100.00
29467;BME280;60968;37.490;-122.288;2022-08-19T09:24:13;98493.94;;;14.42;100.00
29467;BME280;60968;37.490;-122.288;2022-08-19T09:27:18;98485.44;;;14.35;100.00
29467;BME280;60968;37.490;-122.288;2022-08-19T09:30:25;98475.97;;;14.31;100.00
29467;BME280;60968;37.490;-122.288;2022-08-19T09:33:27;98471.72;;;14.29;100.00
29467;BME280;60968;37.490;-122.288;2022-08-19T09:36:29;98477.94;;;14.26;100.00
29467;BME280;60968;37.490;-122.288;2022-08-19T09:39:30;98480.50;;;14.28;100.00
29467;BME280;60968;37.490;-122.288;2022-08-19T09:42:30;98482.25;;;14.27;100.00
29467;BME280;60968;37.490;-122.288;2022-08-19T09:45:33;98476.22;;;14.25;100.00
29467;BME280;60968;37.490;-122.288;2022-08-19T09:48:35;98477.97;;;14.24;100.00
29467;BME280;60968;37.490;-122.288;2022-08-19T09:51:36;98476.03;;;14.30;100.00
29467;BME280;60968;37.490;-122.288;2022-08-19T09:54:41;98486.41;;;14.33;100.00
29467;BME280;60968;37.490;-122.288;2022-08-19T09:57:42;98475.88;;;14.34;100.00
29467;BME280;60968;37.490;-122.288;2022-08-19T10:00:42;98476.03;;;14.30;100.00
29467;BME280;60968;37.490;-122.288;2022-08-19T10:03:43;98473.53;;;14.27;100.00
29467;BME280;60968;37.490;-122.288;2022-08-19T10:06:49;98475.47;;;14.21;100.00
29467;BME280;60968;37.490;-122.288;2022-08-19T10:09:50;98474.69;;;14.19;100.00
29467;BME280;60968;37.490;-122.288;2022-08-19T10:12:52;98476.41;;;14.20;100.00
29467;BME280;60968;37.490;-122.288;2022-08-19T10:15:55;98468.63;;;14.17;100.00
29467;BME280;60968;37.490;-122.288;2022-08-19T10:18:56;98464.44;;;14.13;100.00
29467;BME280;60968;37.490;-122.288;2022-08-19T10:21:58;98467.97;;;14.12;100.00
29467;BME280;60968;37.490;-122.288;2022-08-19T10:24:59;98468.75;;;14.14;100.00
29467;BME280;60968;37.490;-122.288;2022-08-19T10:28:00;98469.56;;;14.16;100.00
29467;BME280;60968;37.490;-122.288;2022-08-19T10:31:05;98467.69;;;14.20;100.00
29467;BME280;60968;37.490;-122.288;2022-08-19T10:34:06;98474.63;;;14.21;100.00
29467;BME280;60968;37.490;-122.288;2022-08-19T10:37:07;98469.38;;;14.21;100.00
29467;BME280;60968;37.490;-122.288;2022-08-19T10:40:10;98463.31;;;14.20;100.00
29467;BME280;60968;37.490;-122.288;2022-08-19T10:43:11;98466.84;;;14.19;100.00
29467;BME280;60968;37.490;-122.288;2022-08-19T10:46:14;98466.97;;;14.16;100.00
29467;BME280;60968;37.490;-122.288;2022-08-19T10:49:15;98464.47;;;14.12;100.00
29467;BME280;60968;37.490;-122.288;2022-08-19T10:52:16;98464.47;;;14.12;100.00
29467;BME280;60968;37.490;-122.288;2022-08-19T10:55:23;98457.38;;;14.15;100.00
29467;BME280;60968;37.490;-122.288;2022-08-19T10:58:24;98461.59;;;14.19;100.00
29467;BME280;60968;37.490;-122.288;2022-08-19T11:01:26;98460.13;;;14.12;100.00
29467;BME280;60968;37.490;-122.288;2022-08-19T11:04:28;98464.53;;;14.10;100.00
29467;BME280;60968;37.490;-122.288;2022-08-19T11:07:29;98460.06;;;14.14;100.00
29467;BME280;60968;37.490;-122.288;2022-08-19T11:10:29;98452.00;;;14.18;100.00
29467;BME280;60968;37.490;-122.288;2022-08-19T11:13:33;98450.03;;;14.25;100.00
29467;BME280;60968;37.490;-122.288;2022-08-19T11:16:34;98446.13;;;14.35;100.00
29467;BME280;60968;37.490;-122.288;2022-08-19T11:19:36;98451.09;;;14.43;100.00
29467;BME280;60968;37.490;-122.288;2022-08-19T11:22:39;98448.28;;;14.48;100.00
29467;BME280;60968;37.490;-122.288;2022-08-19T11:25:41;98446.88;;;14.63;100.00
29467;BME280;60968;37.490;-122.288;2022-08-19T11:28:42;98449.09;;;14.72;100.00
29467;BME280;60968;37.490;-122.288;2022-08-19T11:31:45;98440.69;;;14.64;100.00
29467;BME280;60968;37.490;-122.288;2022-08-19T11:34:48;98443.16;;;14.68;100.00
29467;BME280;60968;37.490;-122.288;2022-08-19T11:37:49;98449.16;;;14.70;100.00
29467;BME280;60968;37.490;-122.288;2022-08-19T11:41:01;98446.94;;;14.59;100.00
29467;BME280;60968;37.490;-122.288;2022-08-19T11:44:03;98439.56;;;14.47;100.00
29467;BME280;60968;37.490;-122.288;2022-08-19T11:47:04;98444.56;;;14.53;100.00
29467;BME280;60968;37.490;-122.288;2022-08-19T11:50:05;98442.13;;;14.49;100.00
29467;BME280;60968;37.490;-122.288;2022-08-19T11:53:06;98443.94;;;14.47;100.00
29467;BME280;60968;37.490;-122.288;2022-08-19T11:56:09;98437.97;;;14.43;100.00
29467;BME280;60968;37.490;-122.288;2022-08-19T11:59:11;98430.19;;;14.41;100.00
29467;BME280;60968;37.490;-122.288;2022-08-19T12:02:19;98430.34;;;14.37;100.00
29467;BME280;60968;37.490;-122.288;2022-08-19T12:05:20;98432.84;;;14.40;100.00
29467;BME280;60968;37.490;-122.288;2022-08-19T12:08:21;98430.72;;;14.50;100.00
29467;BME280;60968;37.490;-122.288;2022-08-19T12:11:23;98430.63;;;14.53;100.00
29467;BME280;60968;37.490;-122.288;2022-08-19T12:14:25;98444.56;;;14.53;100.00
29467;BME280;60968;37.490;-122.288;2022-08-19T12:17:27;98444.06;;;14.44;100.00
29467;BME280;60968;37.490;-122.288;2022-08-19T12:20:29;98439.34;;;14.30;100.00
29467;BME280;60968;37.490;-122.288;2022-08-19T12:23:30;98442.09;;;14.27;100.00
29467;BME280;60968;37.490;-122.288;2022-08-19T12:26:31;98442.28;;;14.22;100.00
29467;BME280;60968;37.490;-122.288;2022-08-19T12:29:32;98444.03;;;14.21;100.00
29467;BME280;60968;37.490;-122.288;2022-08-19T12:32:34;98440.84;;;14.13;100.00
29467;BME280;60968;37.490;-122.288;2022-08-19T12:35:35;98441.22;;;14.04;100.00
29467;BME280;60968;37.490;-122.288;2022-08-19T12:38:39;98439.63;;;14.00;100.00
29467;BME280;60968;37.490;-122.288;2022-08-19T12:41:41;98436.31;;;13.95;100.00
29467;BME280;60968;37.490;-122.288;2022-08-19T12:44:43;98443.44;;;13.91;100.00
29467;BME280;60968;37.490;-122.288;2022-08-19T12:47:46;98446.19;;;13.86;100.00
29467;BME280;60968;37.490;-122.288;2022-08-19T12:50:49;98445.63;;;13.78;100.00
29467;BME280;60968;37.490;-122.288;2022-08-19T12:53:51;98448.88;;;13.85;100.00
29467;BME280;60968;37.490;-122.288;2022-08-19T12:56:53;98445.41;;;13.84;100.00
29467;BME280;60968;37.490;-122.288;2022-08-19T12:59:54;98446.91;;;13.92;100.00
29467;BME280;60968;37.490;-122.288;2022-08-19T13:02:55;98449.50;;;13.92;100.00
29467;BME280;60968;37.490;-122.288;2022-08-19T13:05:56;98446.06;;;13.91;100.00
29467;BME280;60968;37.490;-122.288;2022-08-19T13:08:57;98441.66;;;13.92;100.00
29467;BME280;60968;37.490;-122.288;2022-08-19T13:11:59;98443.06;;;13.77;100.00
29467;BME280;60968;37.490;-122.288;2022-08-19T13:15:05;98451.84;;;13.76;100.00
29467;BME280;60968;37.490;-122.288;2022-08-19T13:18:08;98445.53;;;13.81;100.00
29467;BME280;60968;37.490;-122.288;2022-08-19T13:21:10;98447.44;;;13.76;100.00
29467;BME280;60968;37.490;-122.288;2022-08-19T13:24:11;98452.00;;;13.71;100.00
29467;BME280;60968;37.490;-122.288;2022-08-19T13:27:13;98448.28;;;13.77;100.00
29467;BME280;60968;37.490;-122.288;2022-08-19T13:30:16;98447.88;;;13.64;100.00
29467;BME280;60968;37.490;-122.288;2022-08-19T13:33:17;98454.91;;;13.63;100.00
29467;BME280;60968;37.490;-122.288;2022-08-19T13:36:18;98452.28;;;13.63;100.00
29467;BME280;60968;37.490;-122.288;2022-08-19T13:39:20;98455.38;;;13.75;100.00
29467;BME280;60968;37.490;-122.288;2022-08-19T13:42:20;98449.81;;;13.84;100.00
29467;BME280;60968;37.490;-122.288;2022-08-19T13:45:24;98459.22;;;13.89;100.00
29467;BME280;60968;37.490;-122.288;2022-08-19T13:48:25;98459.16;;;13.91;100.00
29467;BME280;60968;37.490;-122.288;2022-08-19T13:51:27;98460.88;;;13.90;100.00
29467;BME280;60968;37.490;-122.288;2022-08-19T13:54:29;98458.16;;;13.94;100.00
29467;BME280;60968;37.490;-122.288;2022-08-19T13:57:30;98453.91;;;13.91;100.00
29467;BME280;60968;37.490;-122.288;2022-08-19T14:00:35;98453.16;;;13.87;100.00
29467;BME280;60968;37.490;-122.288;2022-08-19T14:03:37;98449.50;;;13.92;100.00
29467;BME280;60968;37.490;-122.288;2022-08-19T14:06:38;98461.59;;;13.96;100.00
29467;BME280;60968;37.490;-122.288;2022-08-19T14:09:39;98462.81;;;14.11;100.00
29467;BME280;60968;37.490;-122.288;2022-08-19T14:12:40;98462.63;;;14.15;100.00
29467;BME280;60968;37.490;-122.288;2022-08-19T14:15:41;98471.19;;;14.19;100.00
29467;BME280;60968;37.490;-122.288;2022-08-19T14:18:42;98462.09;;;14.29;100.00
29467;BME280;60968;37.490;-122.288;2022-08-19T14:21:45;98468.88;;;14.35;100.00
29467;BME280;60968;37.490;-122.288;2022-08-19T14:24:47;98473.16;;;14.37;100.00
29467;BME280;60968;37.490;-122.288;2022-08-19T14:27:48;98476.63;;;14.38;100.00
29467;BME280;60968;37.490;-122.288;2022-08-19T14:30:49;98474.25;;;14.32;100.00
29467;BME280;60968;37.490;-122.288;2022-08-19T14:33:50;98475.59;;;14.42;100.00
29467;BME280;60968;37.490;-122.288;2022-08-19T14:36:52;98473.59;;;14.49;100.00
29467;BME280;60968;37.490;-122.288;2022-08-19T14:39:53;98475.00;;;14.57;100.00
29467;BME280;60968;37.490;-122.288;2022-08-19T14:42:55;98468.13;;;14.77;100.00
29467;BME280;60968;37.490;-122.288;2022-08-19T14:45:56;98470.91;;;14.74;100.00
29467;BME280;60968;37.490;-122.288;2022-08-19T14:49:00;98470.31;;;14.88;100.00
29467;BME280;60968;37.490;-122.288;2022-08-19T14:52:01;98474.50;;;14.94;100.00
29467;BME280;60968;37.490;-122.288;2022-08-19T14:55:05;98469.94;;;14.97;100.00
29467;BME280;60968;37.490;-122.288;2022-08-19T14:58:07;98468.97;;;15.00;100.00
29467;BME280;60968;37.490;-122.288;2022-08-19T15:01:09;98477.25;;;15.11;100.00
29467;BME280;60968;37.490;-122.288;2022-08-19T15:04:13;98474.56;;;15.13;100.00
29467;BME280;60968;37.490;-122.288;2022-08-19T15:07:17;98479.28;;;15.04;100.00
29467;BME280;60968;37.490;-122.288;2022-08-19T15:10:19;98473.69;;;14.91;100.00
29467;BME280;60968;37.490;-122.288;2022-08-19T15:13:20;98473.97;;;15.06;100.00
29467;BME280;60968;37.490;-122.288;2022-08-19T15:16:21;98474.44;;;15.16;100.00
29467;BME280;60968;37.490;-122.288;2022-08-19T15:19:23;98474.47;;;15.36;100.00
29467;BME280;60968;37.490;-122.288;2022-08-19T15:22:23;98475.84;;;15.66;100.00
29467;BME280;60968;37.490;-122.288;2022-08-19T15:25:24;98482.81;;;15.87;100.00